sensor_id;sensor_type;location;lat;lon;timestamp;temperature;humidity
25923;DHT22;13725;51.170;4.442;2023-03-30T00:01:33;15.30;99.90
25923;DHT22;13725;51.170;4.442;2023-03-30T00:03:59;15.40;99.90
25923;DHT22;13725;51.170;4.442;2023-03-30T00:06:25;15.20;99.90
25923;DHT22;13725;51.170;4.442;2023-03-30T00:08:53;15.20;99.90
25923;DHT22;13725;51.170;4.442;2023-03-30T00:11:22;15.30;99.90
25923;DHT22;13725;51.170;4.442;2023-03-30T00:13:49;15.40;99.90
25923;DHT22;13725;51.170;4.442;2023-03-30T00:16:15;15.40;99.90
25923;DHT22;13725;51.170;4.442;2023-03-30T00:18:41;15.50;99.90
25923;DHT22;13725;51.170;4.442;2023-03-30T00:21:10;15.30;99.90
25923;DHT22;13725;51.170;4.442;2023-03-30T00:23:36;15.40;99.90
25923;DHT22;13725;51.170;4.442;2023-03-30T00:26:02;15.40;99.90
25923;DHT22;13725;51.170;4.442;2023-03-30T00:28:29;15.30;99.90
25923;DHT22;13725;51.170;4.442;2023-03-30T00:30:57;15.20;99.90
25923;DHT22;13725;51.170;4.442;2023-03-30T00:33:23;15.20;99.90
25923;DHT22;13725;51.170;4.442;2023-03-30T00:35:56;15.10;99.90
25923;DHT22;13725;51.170;4.442;2023-03-30T00:38:23;15.10;99.90
25923;DHT22;13725;51.170;4.442;2023-03-30T00:40:55;15.20;99.90
25923;DHT22;13725;51.170;4.442;2023-03-30T00:43:21;15.30;99.90
25923;DHT22;13725;51.170;4.442;2023-03-30T00:45:47;15.30;99.90
25923;DHT22;13725;51.170;4.442;2023-03-30T00:48:16;15.20;99.90
25923;DHT22;13725;51.170;4.442;2023-03-30T00:51:09;15.30;99.90
25923;DHT22;13725;51.170;4.442;2023-03-30T00:53:44;15.30;99.90
25923;DHT22;13725;51.170;4.442;2023-03-30T00:56:14;15.20;99.90
25923;DHT22;13725;51.170;4.442;2023-03-30T00:58:41;15.20;99.90
25923;DHT22;13725;51.170;4.442;2023-03-30T01:01:11;15.10;99.90
25923;DHT22;13725;51.170;4.442;2023-03-30T01:03:46;15.10;99.90
25923;DHT22;13725;51.170;4.442;2023-03-30T01:06:14;15.00;99.90
25923;DHT22;13725;51.170;4.442;2023-03-30T01:08:42;14.90;99.90
25923;DHT22;13725;51.170;4.442;2023-03-30T01:11:09;14.80;99.90
25923;DHT22;13725;51.170;4.442;2023-03-30T01:13:39;14.70;99.90
25923;DHT22;13725;51.170;4.442;2023-03-30T01:22:02;14.50;99.90
25923;DHT22;13725;51.170;4.442;2023-03-30T01:30:36;14.40;99.90
25923;DHT22;13725;51.170;4.442;2023-03-30T01:41:21;14.30;99.90
25923;DHT22;13725;51.170;4.442;2023-03-30T01:43:52;14.30;99.90
25923;DHT22;13725;51.170;4.442;2023-03-30T01:46:30;14.20;99.90
25923;DHT22;13725;51.170;4.442;2023-03-30T01:51:33;14.10;99.90
25923;DHT22;13725;51.170;4.442;2023-03-30T01:54:21;14.00;99.90
25923;DHT22;13725;51.170;4.442;2023-03-30T01:56:53;14.00;99.90
25923;DHT22;13725;51.170;4.442;2023-03-30T01:59:31;13.90;99.90
25923;DHT22;13725;51.170;4.442;2023-03-30T02:02:00;13.90;99.90
25923;DHT22;13725;51.170;4.442;2023-03-30T02:04:33;13.90;99.90
25923;DHT22;13725;51.170;4.442;2023-03-30T02:07:10;13.90;99.90
25923;DHT22;13725;51.170;4.442;2023-03-30T02:09:39;13.90;99.90
25923;DHT22;13725;51.170;4.442;2023-03-30T02:12:08;14.00;99.90
25923;DHT22;13725;51.170;4.442;2023-03-30T02:14:35;14.20;99.90
25923;DHT22;13725;51.170;4.442;2023-03-30T02:17:13;14.20;99.90
25923;DHT22;13725;51.170;4.442;2023-03-30T02:19:39;14.30;99.90
25923;DHT22;13725;51.170;4.442;2023-03-30T02:22:07;14.30;99.90
25923;DHT22;13725;51.170;4.442;2023-03-30T02:24:33;14.40;99.90
25923;DHT22;13725;51.170;4.442;2023-03-30T02:27:00;14.50;99.90
25923;DHT22;13725;51.170;4.442;2023-03-30T02:29:27;14.60;99.90
25923;DHT22;13725;51.170;4.442;2023-03-30T02:31:56;14.60;99.90
25923;DHT22;13725;51.170;4.442;2023-03-30T02:37:00;14.60;99.90
25923;DHT22;13725;51.170;4.442;2023-03-30T02:42:48;14.70;99.90
25923;DHT22;13725;51.170;4.442;2023-03-30T02:45:26;14.80;99.90
25923;DHT22;13725;51.170;4.442;2023-03-30T02:53:14;14.90;99.90
25923;DHT22;13725;51.170;4.442;2023-03-30T02:59:02;15.00;99.90
25923;DHT22;13725;51.170;4.442;2023-03-30T03:01:40;15.00;99.90
25923;DHT22;13725;51.170;4.442;2023-03-30T03:04:14;15.00;99.90
25923;DHT22;13725;51.170;4.442;2023-03-30T03:07:05;15.00;99.90
25923;DHT22;13725;51.170;4.442;2023-03-30T03:09:31;15.10;99.90
25923;DHT22;13725;51.170;4.442;2023-03-30T03:11:57;15.10;99.90
25923;DHT22;13725;51.170;4.442;2023-03-30T03:14:26;15.10;99.90
25923;DHT22;13725;51.170;4.442;2023-03-30T03:16:52;15.10;99.90
25923;DHT22;13725;51.170;4.442;2023-03-30T03:19:22;15.10;99.90
25923;DHT22;13725;51.170;4.442;2023-03-30T03:21:49;15.10;99.90
25923;DHT22;13725;51.170;4.442;2023-03-30T03:24:15;15.10;99.90
25923;DHT22;13725;51.170;4.442;2023-03-30T03:27:00;15.10;99.90
25923;DHT22;13725;51.170;4.442;2023-03-30T03:29:31;15.00;99.90
25923;DHT22;13725;51.170;4.442;2023-03-30T03:31:57;15.00;99.90
25923;DHT22;13725;51.170;4.442;2023-03-30T03:34:26;15.00;99.90
25923;DHT22;13725;51.170;4.442;2023-03-30T03:37:02;14.90;99.90
25923;DHT22;13725;51.170;4.442;2023-03-30T03:39:31;14.90;99.90
25923;DHT22;13725;51.170;4.442;2023-03-30T03:42:06;14.90;99.90
25923;DHT22;13725;51.170;4.442;2023-03-30T03:44:34;14.90;99.90
25923;DHT22;13725;51.170;4.442;2023-03-30T03:47:02;14.80;99.90
25923;DHT22;13725;51.170;4.442;2023-03-30T03:49:28;14.90;99.90
25923;DHT22;13725;51.170;4.442;2023-03-30T03:51:53;15.00;99.90
25923;DHT22;13725;51.170;4.442;2023-03-30T03:54:19;14.90;99.90
25923;DHT22;13725;51.170;4.442;2023-03-30T03:56:47;14.90;99.90
25923;DHT22;13725;51.170;4.442;2023-03-30T03:59:14;14.90;99.90
25923;DHT22;13725;51.170;4.442;2023-03-30T04:01:39;14.80;99.90
25923;DHT22;13725;51.170;4.442;2023-03-30T04:04:07;14.90;99.90
25923;DHT22;13725;51.170;4.442;2023-03-30T04:06:32;15.00;99.90
25923;DHT22;13725;51.170;4.442;2023-03-30T04:08:58;15.00;99.90
25923;DHT22;13725;51.170;4.442;2023-03-30T04:11:45;15.00;99.90
25923;DHT22;13725;51.170;4.442;2023-03-30T04:14:22;14.90;99.90
25923;DHT22;13725;51.170;4.442;2023-03-30T04:17:04;14.90;99.90
25923;DHT22;13725;51.170;4.442;2023-03-30T04:19:38;15.00;99.90
25923;DHT22;13725;51.170;4.442;2023-03-30T04:22:22;15.00;99.90
25923;DHT22;13725;51.170;4.442;2023-03-30T04:24:59;14.90;99.90
25923;DHT22;13725;51.170;4.442;2023-03-30T04:27:59;15.00;99.90
25923;DHT22;13725;51.170;4.442;2023-03-30T04:30:58;14.90;99.90
25923;DHT22;13725;51.170;4.442;2023-03-30T04:33:33;14.80;99.90
25923;DHT22;13725;51.170;4.442;2023-03-30T04:36:18;14.80;99.90
25923;DHT22;13725;51.170;4.442;2023-03-30T04:39:03;14.70;99.90
25923;DHT22;13725;51.170;4.442;2023-03-30T04:41:49;14.60;99.90
25923;DHT22;13725;51.170;4.442;2023-03-30T04:44:36;14.60;99.90
25923;DHT22;13725;51.170;4.442;2023-03-30T04:47:15;14.40;99.90
25923;DHT22;13725;51.170;4.442;2023-03-30T04:49:41;14.40;99.90
25923;DHT22;13725;51.170;4.442;2023-03-30T04:52:26;14.50;99.90
25923;DHT22;13725;51.170;4.442;2023-03-30T04:55:12;14.40;99.90
25923;DHT22;13725;51.170;4.442;2023-03-30T04:57:56;14.50;99.90
25923;DHT22;13725;51.170;4.442;2023-03-30T05:00:40;14.50;99.90
25923;DHT22;13725;51.170;4.442;2023-03-30T05:03:21;14.60;99.90
25923;DHT22;13725;51.170;4.442;2023-03-30T05:06:04;14.50;99.90
25923;DHT22;13725;51.170;4.442;2023-03-30T05:08:43;14.40;99.90
25923;DHT22;13725;51.170;4.442;2023-03-30T05:11:38;14.20;99.90
25923;DHT22;13725;51.170;4.442;2023-03-30T05:14:17;13.90;99.90
25923;DHT22;13725;51.170;4.442;2023-03-30T05:16:52;13.70;99.90
25923;DHT22;13725;51.170;4.442;2023-03-30T05:19:32;13.50;99.90
25923;DHT22;13725;51.170;4.442;2023-03-30T05:22:17;13.30;99.90
25923;DHT22;13725;51.170;4.442;2023-03-30T05:24:50;13.10;99.90
25923;DHT22;13725;51.170;4.442;2023-03-30T05:27:33;13.10;99.90
25923;DHT22;13725;51.170;4.442;2023-03-30T05:30:22;12.90;99.90
25923;DHT22;13725;51.170;4.442;2023-03-30T05:33:09;12.80;99.90
25923;DHT22;13725;51.170;4.442;2023-03-30T05:35:55;12.60;99.90
25923;DHT22;13725;51.170;4.442;2023-03-30T05:38:44;12.60;99.90
25923;DHT22;13725;51.170;4.442;2023-03-30T05:41:13;12.50;99.90
25923;DHT22;13725;51.170;4.442;2023-03-30T05:44:06;12.40;99.90
25923;DHT22;13725;51.170;4.442;2023-03-30T05:46:52;12.30;99.90
25923;DHT22;13725;51.170;4.442;2023-03-30T05:49:40;12.30;99.90
25923;DHT22;13725;51.170;4.442;2023-03-30T05:52:14;12.40;99.90
25923;DHT22;13725;51.170;4.442;2023-03-30T05:54:58;12.50;99.90
25923;DHT22;13725;51.170;4.442;2023-03-30T05:57:46;12.40;99.90
25923;DHT22;13725;51.170;4.442;2023-03-30T06:00:30;12.40;99.90
25923;DHT22;13725;51.170;4.442;2023-03-30T06:03:08;12.40;99.90
25923;DHT22;13725;51.170;4.442;2023-03-30T06:05:38;12.50;99.90
25923;DHT22;13725;51.170;4.442;2023-03-30T06:08:05;12.50;99.90
25923;DHT22;13725;51.170;4.442;2023-03-30T06:10:33;12.50;99.90
25923;DHT22;13725;51.170;4.442;2023-03-30T06:12:59;12.40;99.90
25923;DHT22;13725;51.170;4.442;2023-03-30T06:15:52;12.70;99.90
25923;DHT22;13725;51.170;4.442;2023-03-30T06:18:20;13.00;99.90
25923;DHT22;13725;51.170;4.442;2023-03-30T06:20:55;13.60;99.90
25923;DHT22;13725;51.170;4.442;2023-03-30T06:23:21;14.10;99.90
25923;DHT22;13725;51.170;4.442;2023-03-30T06:25:49;14.50;99.90
25923;DHT22;13725;51.170;4.442;2023-03-30T06:28:21;14.50;99.90
25923;DHT22;13725;51.170;4.442;2023-03-30T06:30:47;15.00;99.90
25923;DHT22;13725;51.170;4.442;2023-03-30T06:33:15;15.40;99.90
25923;DHT22;13725;51.170;4.442;2023-03-30T06:35:52;16.00;99.90
25923;DHT22;13725;51.170;4.442;2023-03-30T06:38:22;16.80;99.90
25923;DHT22;13725;51.170;4.442;2023-03-30T06:40:49;17.90;99.90
25923;DHT22;13725;51.170;4.442;2023-03-30T06:43:18;18.10;99.90
25923;DHT22;13725;51.170;4.442;2023-03-30T06:45:54;17.70;99.90
25923;DHT22;13725;51.170;4.442;2023-03-30T06:48:21;18.10;99.90
25923;DHT22;13725;51.170;4.442;2023-03-30T06:50:57;18.90;99.90
25923;DHT22;13725;51.170;4.442;2023-03-30T06:53:27;19.30;99.90
25923;DHT22;13725;51.170;4.442;2023-03-30T06:55:55;20.20;99.90
25923;DHT22;13725;51.170;4.442;2023-03-30T06:58:23;21.30;99.90
25923;DHT22;13725;51.170;4.442;2023-03-30T07:00:49;21.90;99.90
25923;DHT22;13725;51.170;4.442;2023-03-30T07:03:37;21.40;99.90
25923;DHT22;13725;51.170;4.442;2023-03-30T07:06:20;21.80;99.90
25923;DHT22;13725;51.170;4.442;2023-03-30T07:08:47;22.40;99.90
25923;DHT22;13725;51.170;4.442;2023-03-30T07:11:18;22.00;99.90
25923;DHT22;13725;51.170;4.442;2023-03-30T07:13:44;21.70;99.90
25923;DHT22;13725;51.170;4.442;2023-03-30T07:16:10;21.50;99.90
25923;DHT22;13725;51.170;4.442;2023-03-30T07:18:36;20.50;99.90
25923;DHT22;13725;51.170;4.442;2023-03-30T07:21:03;19.70;99.90
25923;DHT22;13725;51.170;4.442;2023-03-30T07:23:34;19.30;99.90
25923;DHT22;13725;51.170;4.442;2023-03-30T07:26:00;18.70;99.90
25923;DHT22;13725;51.170;4.442;2023-03-30T07:28:34;18.20;99.90
25923;DHT22;13725;51.170;4.442;2023-03-30T07:31:04;18.00;99.90
25923;DHT22;13725;51.170;4.442;2023-03-30T07:33:32;17.90;99.90
25923;DHT22;13725;51.170;4.442;2023-03-30T07:36:02;17.60;99.90
25923;DHT22;13725;51.170;4.442;2023-03-30T07:38:29;18.60;99.90
25923;DHT22;13725;51.170;4.442;2023-03-30T07:40:55;19.30;99.90
25923;DHT22;13725;51.170;4.442;2023-03-30T07:43:23;19.00;99.90
25923;DHT22;13725;51.170;4.442;2023-03-30T07:45:49;18.90;99.90
25923;DHT22;13725;51.170;4.442;2023-03-30T07:48:22;19.60;99.90
25923;DHT22;13725;51.170;4.442;2023-03-30T07:50:48;19.20;99.90
25923;DHT22;13725;51.170;4.442;2023-03-30T07:53:13;19.80;99.90
25923;DHT22;13725;51.170;4.442;2023-03-30T07:55:40;20.60;99.90
25923;DHT22;13725;51.170;4.442;2023-03-30T07:58:13;21.00;99.90
25923;DHT22;13725;51.170;4.442;2023-03-30T08:00:39;21.40;99.90
25923;DHT22;13725;51.170;4.442;2023-03-30T08:03:24;21.40;99.90
25923;DHT22;13725;51.170;4.442;2023-03-30T08:05:54;21.00;99.90
25923;DHT22;13725;51.170;4.442;2023-03-30T08:08:22;21.20;99.90
25923;DHT22;13725;51.170;4.442;2023-03-30T08:10:48;20.80;99.90
25923;DHT22;13725;51.170;4.442;2023-03-30T08:13:14;21.10;99.90
25923;DHT22;13725;51.170;4.442;2023-03-30T08:15:39;21.10;99.90
25923;DHT22;13725;51.170;4.442;2023-03-30T08:18:06;20.50;99.90
25923;DHT22;13725;51.170;4.442;2023-03-30T08:20:36;20.10;99.90
25923;DHT22;13725;51.170;4.442;2023-03-30T08:23:03;19.60;99.90
25923;DHT22;13725;51.170;4.442;2023-03-30T08:25:29;19.50;99.90
25923;DHT22;13725;51.170;4.442;2023-03-30T08:27:55;19.30;99.90
25923;DHT22;13725;51.170;4.442;2023-03-30T08:30:21;18.90;99.90
25923;DHT22;13725;51.170;4.442;2023-03-30T08:32:47;19.10;99.90
25923;DHT22;13725;51.170;4.442;2023-03-30T08:35:13;19.00;99.90
25923;DHT22;13725;51.170;4.442;2023-03-30T08:37:39;18.40;99.90
25923;DHT22;13725;51.170;4.442;2023-03-30T08:40:06;18.70;99.90
25923;DHT22;13725;51.170;4.442;2023-03-30T08:45:20;20.10;99.90
25923;DHT22;13725;51.170;4.442;2023-03-30T08:47:48;20.30;99.90
25923;DHT22;13725;51.170;4.442;2023-03-30T08:50:35;20.10;99.90
25923;DHT22;13725;51.170;4.442;2023-03-30T08:53:05;19.60;99.90
25923;DHT22;13725;51.170;4.442;2023-03-30T08:55:33;19.70;99.90
25923;DHT22;13725;51.170;4.442;2023-03-30T08:58:10;20.00;99.90
25923;DHT22;13725;51.170;4.442;2023-03-30T09:00:49;20.50;99.90
25923;DHT22;13725;51.170;4.442;2023-03-30T09:06:13;22.00;99.90
25923;DHT22;13725;51.170;4.442;2023-03-30T09:08:43;21.10;99.90
25923;DHT22;13725;51.170;4.442;2023-03-30T09:11:14;20.20;99.90
25923;DHT22;13725;51.170;4.442;2023-03-30T09:13:42;19.00;99.90
25923;DHT22;13725;51.170;4.442;2023-03-30T09:18:40;17.80;99.90
25923;DHT22;13725;51.170;4.442;2023-03-30T09:21:11;17.60;99.90
25923;DHT22;13725;51.170;4.442;2023-03-30T09:23:38;17.30;99.90
25923;DHT22;13725;51.170;4.442;2023-03-30T09:26:19;17.20;99.90
25923;DHT22;13725;51.170;4.442;2023-03-30T09:29:00;17.10;99.90
25923;DHT22;13725;51.170;4.442;2023-03-30T09:31:43;17.30;99.90
25923;DHT22;13725;51.170;4.442;2023-03-30T09:34:34;17.70;99.90
25923;DHT22;13725;51.170;4.442;2023-03-30T09:37:16;19.00;99.90
25923;DHT22;13725;51.170;4.442;2023-03-30T09:39:44;20.50;99.90
25923;DHT22;13725;51.170;4.442;2023-03-30T09:45:19;20.20;99.90
25923;DHT22;13725;51.170;4.442;2023-03-30T09:47:45;19.40;99.90
25923;DHT22;13725;51.170;4.442;2023-03-30T09:50:23;19.40;99.90
25923;DHT22;13725;51.170;4.442;2023-03-30T09:53:42;20.10;99.90
25923;DHT22;13725;51.170;4.442;2023-03-30T09:58:32;19.60;99.90
25923;DHT22;13725;51.170;4.442;2023-03-30T10:01:06;19.20;99.90
25923;DHT22;13725;51.170;4.442;2023-03-30T10:03:33;19.60;99.90
25923;DHT22;13725;51.170;4.442;2023-03-30T10:06:11;19.70;99.90
25923;DHT22;13725;51.170;4.442;2023-03-30T10:08:53;19.90;99.90
25923;DHT22;13725;51.170;4.442;2023-03-30T10:13:58;20.50;99.90
25923;DHT22;13725;51.170;4.442;2023-03-30T10:16:27;20.40;99.90
25923;DHT22;13725;51.170;4.442;2023-03-30T10:18:58;20.20;99.90
25923;DHT22;13725;51.170;4.442;2023-03-30T10:21:29;19.80;99.90
25923;DHT22;13725;51.170;4.442;2023-03-30T10:26:50;18.40;99.90
25923;DHT22;13725;51.170;4.442;2023-03-30T10:29:18;17.90;99.90
25923;DHT22;13725;51.170;4.442;2023-03-30T10:31:49;17.30;99.90
25923;DHT22;13725;51.170;4.442;2023-03-30T10:34:27;17.00;99.90
25923;DHT22;13725;51.170;4.442;2023-03-30T10:36:58;16.70;99.90
25923;DHT22;13725;51.170;4.442;2023-03-30T10:39:28;16.60;99.90
25923;DHT22;13725;51.170;4.442;2023-03-30T10:41:55;17.80;99.90
25923;DHT22;13725;51.170;4.442;2023-03-30T10:44:25;18.80;99.90
25923;DHT22;13725;51.170;4.442;2023-03-30T10:47:00;19.50;99.90
25923;DHT22;13725;51.170;4.442;2023-03-30T10:49:55;20.50;99.90
25923;DHT22;13725;51.170;4.442;2023-03-30T10:52:44;21.30;99.90
25923;DHT22;13725;51.170;4.442;2023-03-30T10:55:37;20.70;99.90
25923;DHT22;13725;51.170;4.442;2023-03-30T11:03:25;22.80;99.90
25923;DHT22;13725;51.170;4.442;2023-03-30T11:06:11;22.30;99.90
25923;DHT22;13725;51.170;4.442;2023-03-30T11:08:42;21.40;99.90
25923;DHT22;13725;51.170;4.442;2023-03-30T11:11:17;20.90;99.90
25923;DHT22;13725;51.170;4.442;2023-03-30T11:14:02;21.10;99.90
25923;DHT22;13725;51.170;4.442;2023-03-30T11:16:46;21.80;99.90
25923;DHT22;13725;51.170;4.442;2023-03-30T11:19:32;22.50;99.90
25923;DHT22;13725;51.170;4.442;2023-03-30T11:22:40;23.40;99.90
25923;DHT22;13725;51.170;4.442;2023-03-30T11:24:58;25.10;99.90
25923;DHT22;13725;51.170;4.442;2023-03-30T11:27:32;25.90;99.90
25923;DHT22;13725;51.170;4.442;2023-03-30T11:30:42;25.70;99.90
25923;DHT22;13725;51.170;4.442;2023-03-30T11:33:33;25.50;99.90
25923;DHT22;13725;51.170;4.442;2023-03-30T11:36:30;23.60;99.90
25923;DHT22;13725;51.170;4.442;2023-03-30T11:39:04;22.50;99.90
25923;DHT22;13725;51.170;4.442;2023-03-30T11:41:47;22.30;99.90
25923;DHT22;13725;51.170;4.442;2023-03-30T11:44:13;22.80;99.90
25923;DHT22;13725;51.170;4.442;2023-03-30T11:49:45;24.30;99.90
25923;DHT22;13725;51.170;4.442;2023-03-30T11:52:26;24.00;99.90
25923;DHT22;13725;51.170;4.442;2023-03-30T11:55:28;23.70;99.90
25923;DHT22;13725;51.170;4.442;2023-03-30T11:58:21;22.90;99.90
25923;DHT22;13725;51.170;4.442;2023-03-30T12:03:41;21.00;99.90
25923;DHT22;13725;51.170;4.442;2023-03-30T12:11:49;21.00;99.90
25923;DHT22;13725;51.170;4.442;2023-03-30T12:19:44;21.30;99.90
25923;DHT22;13725;51.170;4.442;2023-03-30T12:22:25;20.70;99.90
25923;DHT22;13725;51.170;4.442;2023-03-30T12:25:02;20.70;99.90
25923;DHT22;13725;51.170;4.442;2023-03-30T12:27:34;20.80;99.90
25923;DHT22;13725;51.170;4.442;2023-03-30T12:30:45;21.50;99.90
25923;DHT22;13725;51.170;4.442;2023-03-30T12:33:18;21.60;99.90
25923;DHT22;13725;51.170;4.442;2023-03-30T12:35:52;21.60;99.90
25923;DHT22;13725;51.170;4.442;2023-03-30T12:38:24;23.10;99.90
25923;DHT22;13725;51.170;4.442;2023-03-30T12:41:11;24.30;99.90
25923;DHT22;13725;51.170;4.442;2023-03-30T12:43:55;25.10;99.90
25923;DHT22;13725;51.170;4.442;2023-03-30T12:52:36;26.60;96.10
25923;DHT22;13725;51.170;4.442;2023-03-30T12:55:15;25.60;97.30
25923;DHT22;13725;51.170;4.442;2023-03-30T13:06:02;20.60;99.90
25923;DHT22;13725;51.170;4.442;2023-03-30T13:08:39;19.00;99.90
25923;DHT22;13725;51.170;4.442;2023-03-30T13:11:18;18.10;99.90
25923;DHT22;13725;51.170;4.442;2023-03-30T13:13:56;18.30;99.90
25923;DHT22;13725;51.170;4.442;2023-03-30T13:22:48;19.60;99.90
25923;DHT22;13725;51.170;4.442;2023-03-30T13:29:38;22.20;99.90
25923;DHT22;13725;51.170;4.442;2023-03-30T13:46:04;24.20;99.90
25923;DHT22;13725;51.170;4.442;2023-03-30T13:51:26;23.20;99.90
25923;DHT22;13725;51.170;4.442;2023-03-30T13:54:06;22.60;99.90
25923;DHT22;13725;51.170;4.442;2023-03-30T13:56:39;22.00;99.90
25923;DHT22;13725;51.170;4.442;2023-03-30T13:59:35;21.40;99.90
25923;DHT22;13725;51.170;4.442;2023-03-30T14:02:02;20.70;99.90
25923;DHT22;13725;51.170;4.442;2023-03-30T14:04:33;20.20;99.90
25923;DHT22;13725;51.170;4.442;2023-03-30T14:07:25;20.20;99.90
25923;DHT22;13725;51.170;4.442;2023-03-30T14:10:06;20.00;99.90
25923;DHT22;13725;51.170;4.442;2023-03-30T14:12:34;19.90;99.90
25923;DHT22;13725;51.170;4.442;2023-03-30T14:15:02;19.70;99.90
25923;DHT22;13725;51.170;4.442;2023-03-30T14:17:39;19.40;99.90
25923;DHT22;13725;51.170;4.442;2023-03-30T14:20:34;19.20;99.90
25923;DHT22;13725;51.170;4.442;2023-03-30T14:23:02;19.10;99.90
25923;DHT22;13725;51.170;4.442;2023-03-30T14:25:34;18.70;99.90
25923;DHT22;13725;51.170;4.442;2023-03-30T14:28:15;18.40;99.90
25923;DHT22;13725;51.170;4.442;2023-03-30T14:30:53;18.00;99.90
25923;DHT22;13725;51.170;4.442;2023-03-30T14:33:19;18.40;99.90
25923;DHT22;13725;51.170;4.442;2023-03-30T14:35:50;18.70;99.90
25923;DHT22;13725;51.170;4.442;2023-03-30T14:38:24;18.60;99.90
25923;DHT22;13725;51.170;4.442;2023-03-30T14:40:51;18.60;99.90
25923;DHT22;13725;51.170;4.442;2023-03-30T14:43:29;18.60;99.90
25923;DHT22;13725;51.170;4.442;2023-03-30T14:46:06;18.50;99.90
25923;DHT22;13725;51.170;4.442;2023-03-30T14:48:39;18.70;99.90
25923;DHT22;13725;51.170;4.442;2023-03-30T14:51:22;18.90;99.90
25923;DHT22;13725;51.170;4.442;2023-03-30T14:53:52;18.90;99.90
25923;DHT22;13725;51.170;4.442;2023-03-30T14:56:19;18.80;99.90
25923;DHT22;13725;51.170;4.442;2023-03-30T14:58:46;18.70;99.90
25923;DHT22;13725;51.170;4.442;2023-03-30T15:01:16;18.40;99.90
25923;DHT22;13725;51.170;4.442;2023-03-30T15:03:43;18.30;99.90
25923;DHT22;13725;51.170;4.442;2023-03-30T15:06:15;18.20;99.90
25923;DHT22;13725;51.170;4.442;2023-03-30T15:08:45;18.40;99.90
25923;DHT22;13725;51.170;4.442;2023-03-30T15:11:22;18.20;99.90
25923;DHT22;13725;51.170;4.442;2023-03-30T15:13:53;18.00;99.90
25923;DHT22;13725;51.170;4.442;2023-03-30T15:16:26;17.90;99.90
25923;DHT22;13725;51.170;4.442;2023-03-30T15:18:58;18.10;99.90
25923;DHT22;13725;51.170;4.442;2023-03-30T15:21:35;17.90;99.90
25923;DHT22;13725;51.170;4.442;2023-03-30T15:24:04;17.80;99.90
25923;DHT22;13725;51.170;4.442;2023-03-30T15:26:31;17.70;99.90
25923;DHT22;13725;51.170;4.442;2023-03-30T15:28:58;17.80;99.90
25923;DHT22;13725;51.170;4.442;2023-03-30T15:31:27;17.80;99.90
25923;DHT22;13725;51.170;4.442;2023-03-30T15:33:57;17.80;99.90
25923;DHT22;13725;51.170;4.442;2023-03-30T15:36:37;17.80;99.90
25923;DHT22;13725;51.170;4.442;2023-03-30T15:39:23;17.60;99.90
25923;DHT22;13725;51.170;4.442;2023-03-30T15:42:01;17.70;99.90
25923;DHT22;13725;51.170;4.442;2023-03-30T15:44:33;17.90;99.90
25923;DHT22;13725;51.170;4.442;2023-03-30T15:47:00;17.70;99.90
25923;DHT22;13725;51.170;4.442;2023-03-30T15:49:40;17.60;99.90
25923;DHT22;13725;51.170;4.442;2023-03-30T15:52:40;17.50;99.90
25923;DHT22;13725;51.170;4.442;2023-03-30T15:55:25;17.40;99.90
25923;DHT22;13725;51.170;4.442;2023-03-30T15:57:52;17.30;99.90
25923;DHT22;13725;51.170;4.442;2023-03-30T16:00:20;17.20;99.90
25923;DHT22;13725;51.170;4.442;2023-03-30T16:02:57;17.00;99.90
25923;DHT22;13725;51.170;4.442;2023-03-30T16:05:25;17.00;99.90
25923;DHT22;13725;51.170;4.442;2023-03-30T16:07:52;17.10;99.90
25923;DHT22;13725;51.170;4.442;2023-03-30T16:10:20;17.00;99.90
25923;DHT22;13725;51.170;4.442;2023-03-30T16:12:50;16.90;99.90
25923;DHT22;13725;51.170;4.442;2023-03-30T16:15:21;16.90;99.90
25923;DHT22;13725;51.170;4.442;2023-03-30T16:17:49;17.00;99.90
25923;DHT22;13725;51.170;4.442;2023-03-30T16:22:43;16.90;99.90
25923;DHT22;13725;51.170;4.442;2023-03-30T16:25:09;17.00;99.90
25923;DHT22;13725;51.170;4.442;2023-03-30T16:27:35;16.80;99.90
25923;DHT22;13725;51.170;4.442;2023-03-30T16:32:39;16.90;99.90
25923;DHT22;13725;51.170;4.442;2023-03-30T16:35:05;16.80;99.90
25923;DHT22;13725;51.170;4.442;2023-03-30T16:37:31;16.80;99.90
25923;DHT22;13725;51.170;4.442;2023-03-30T16:39:57;16.80;99.90
25923;DHT22;13725;51.170;4.442;2023-03-30T16:42:23;16.60;99.90
25923;DHT22;13725;51.170;4.442;2023-03-30T16:44:52;16.60;99.90
25923;DHT22;13725;51.170;4.442;2023-03-30T16:47:18;16.70;99.90
25923;DHT22;13725;51.170;4.442;2023-03-30T16:49:47;16.60;99.90
25923;DHT22;13725;51.170;4.442;2023-03-30T16:52:12;16.50;99.90
25923;DHT22;13725;51.170;4.442;2023-03-30T16:54:38;16.40;99.90
25923;DHT22;13725;51.170;4.442;2023-03-30T16:57:04;16.40;99.90
25923;DHT22;13725;51.170;4.442;2023-03-30T16:59:31;16.30;99.90
25923;DHT22;13725;51.170;4.442;2023-03-30T17:01:58;16.20;99.90
25923;DHT22;13725;51.170;4.442;2023-03-30T17:04:24;16.20;99.90
25923;DHT22;13725;51.170;4.442;2023-03-30T17:06:50;16.10;99.90
25923;DHT22;13725;51.170;4.442;2023-03-30T17:09:17;16.00;99.90
25923;DHT22;13725;51.170;4.442;2023-03-30T17:11:44;16.00;99.90
25923;DHT22;13725;51.170;4.442;2023-03-30T17:14:10;16.10;99.90
25923;DHT22;13725;51.170;4.442;2023-03-30T17:16:37;16.00;99.90
25923;DHT22;13725;51.170;4.442;2023-03-30T17:19:03;15.90;99.90
25923;DHT22;13725;51.170;4.442;2023-03-30T17:21:28;16.00;99.90
25923;DHT22;13725;51.170;4.442;2023-03-30T17:23:54;16.00;99.90
25923;DHT22;13725;51.170;4.442;2023-03-30T17:26:20;16.10;99.90
25923;DHT22;13725;51.170;4.442;2023-03-30T17:28:46;16.10;99.90
25923;DHT22;13725;51.170;4.442;2023-03-30T17:31:16;16.10;99.90
25923;DHT22;13725;51.170;4.442;2023-03-30T17:33:42;16.10;99.90
25923;DHT22;13725;51.170;4.442;2023-03-30T17:36:17;16.00;99.90
25923;DHT22;13725;51.170;4.442;2023-03-30T17:38:43;16.00;99.90
25923;DHT22;13725;51.170;4.442;2023-03-30T17:41:10;16.10;99.90
25923;DHT22;13725;51.170;4.442;2023-03-30T17:43:37;15.90;99.90
25923;DHT22;13725;51.170;4.442;2023-03-30T17:46:04;16.00;99.90
25923;DHT22;13725;51.170;4.442;2023-03-30T17:48:30;15.80;99.90
25923;DHT22;13725;51.170;4.442;2023-03-30T17:50:55;15.80;99.90
25923;DHT22;13725;51.170;4.442;2023-03-30T17:53:21;15.80;99.90
25923;DHT22;13725;51.170;4.442;2023-03-30T17:55:49;15.80;99.90
25923;DHT22;13725;51.170;4.442;2023-03-30T17:58:25;15.70;99.90
25923;DHT22;13725;51.170;4.442;2023-03-30T18:00:53;15.70;99.90
25923;DHT22;13725;51.170;4.442;2023-03-30T18:03:21;15.50;99.90
25923;DHT22;13725;51.170;4.442;2023-03-30T18:05:47;15.50;99.90
25923;DHT22;13725;51.170;4.442;2023-03-30T18:08:16;15.40;99.90
25923;DHT22;13725;51.170;4.442;2023-03-30T18:10:43;15.30;99.90
25923;DHT22;13725;51.170;4.442;2023-03-30T18:13:10;15.30;99.90